Time;durP1;ratioP1;P1;durP2;ratioP2;P2;SDS_P1;SDS_P2;PMS_P1;PMS_P2;Temp;Humidity;BMP_temperature;BMP_pressure;BME280_temperature;BME280_humidity;BME280_pressure;Samples;Min_cycle;Max_cycle;Signal;HPM_P1;HPM_P2
2021/05/05 00:00:00;;;;;;;8.20;3.67;;;;;;;6.22;54.06;99338.20;1722263;81;21501;-60
2021/05/05 00:02:28;;;;;;;4.42;3.47;;;;;;;6.24;54.08;99329.87;1710620;82;21619;-60
2021/05/05 00:04:56;;;;;;;5.42;3.77;;;;;;;6.24;53.98;99322.04;1697884;82;21611;-60
2021/05/05 00:07:24;;;;;;;4.78;3.52;;;;;;;6.25;54.15;99322.88;1713483;81;22738;-57
2021/05/05 00:09:52;;;;;;;;;;;;;;;6.22;54.21;99321.23;1712873;81;21614;-60
2021/05/05 00:12:19;;;;;;;4.20;3.25;;;;;;;6.24;54.21;99319.89;1713187;81;20538;-61
2021/05/05 00:14:47;;;;;;;4.95;3.35;;;;;;;6.20;54.17;99318.27;1711052;81;27200;-60
2021/05/05 00:17:15;;;;;;;5.85;3.87;;;;;;;6.22;54.12;99323.84;1720309;81;21655;-61
2021/05/05 00:19:45;;;;;;;5.33;3.10;;;;;;;6.22;54.25;99319.92;1719806;81;21659;-60
2021/05/05 00:22:12;;;;;;;3.80;3.30;;;;;;;6.22;54.36;99318.62;1700539;82;21546;-61
2021/05/05 00:24:40;;;;;;;;;;;;;;;6.21;54.26;99321.27;1705776;82;21604;-62
2021/05/05 00:27:08;;;;;;;;;;;;;;;6.23;54.29;99319.47;1676065;83;20468;-59
2021/05/05 00:29:37;;;;;;;3.87;2.90;;;;;;;6.21;54.44;99318.20;1678817;83;20482;-61
2021/05/05 00:32:05;;;;;;;4.60;2.80;;;;;;;6.18;54.31;99317.47;1701370;83;22106;-59
2021/05/05 00:34:34;;;;;;;7.85;3.10;;;;;;;6.18;54.36;99324.00;1659024;84;21532;-59
2021/05/05 00:37:02;;;;;;;;;;;;;;;6.22;54.23;99314.70;1662853;84;21643;-60
2021/05/05 00:39:30;;;;;;;4.85;3.05;;;;;;;6.19;54.76;99305.65;1721470;81;20750;-61
2021/05/05 00:41:57;;;;;;;;;;;;;;;6.17;54.34;99311.37;1723094;81;21756;-60
2021/05/05 00:44:25;;;;;;;5.83;2.98;;;;;;;6.14;54.67;99307.99;1721919;80;21923;-61
2021/05/05 00:46:54;;;;;;;4.87;3.25;;;;;;;6.10;54.52;99304.62;1692465;81;21183;-62
2021/05/05 00:49:22;;;;;;;3.65;3.35;;;;;;;6.07;54.80;99307.34;1686569;82;21615;-61
2021/05/05 00:51:50;;;;;;;6.40;3.10;;;;;;;6.05;54.76;99309.14;1684516;82;21580;-62
2021/05/05 00:54:18;;;;;;;3.47;3.05;;;;;;;6.09;54.75;99304.69;1721280;81;21504;-61
2021/05/05 00:56:46;;;;;;;4.28;3.33;;;;;;;6.10;54.67;99302.47;1720546;80;22019;-62
2021/05/05 00:59:15;;;;;;;3.67;3.25;;;;;;;6.10;54.79;99303.77;1670378;83;21622;-60
2021/05/05 01:01:44;;;;;;;4.50;3.08;;;;;;;6.12;54.93;99299.36;1664682;84;21545;-58
2021/05/05 01:04:12;;;;;;;6.95;3.30;;;;;;;6.11;54.78;99299.81;1722009;80;21648;-58
2021/05/05 01:06:43;;;;;;;3.98;3.20;;;;;;;6.13;54.76;99299.78;1720276;81;21485;-61
2021/05/05 01:09:10;;;;;;;7.58;3.58;;;;;;;6.16;54.58;99295.75;1719452;81;21648;-59
2021/05/05 01:11:39;;;;;;;9.35;4.90;;;;;;;6.14;54.64;99292.33;1719853;81;21131;-58
2021/05/05 01:14:09;;;;;;;5.42;3.33;;;;;;;6.16;54.65;99291.83;1707930;81;21554;-58
2021/05/05 01:19:41;;;;;;;6.75;3.30;;;;;;;6.14;54.74;99290.59;1699088;82;21597;-59
2021/05/05 01:22:09;;;;;;;3.87;2.95;;;;;;;6.10;54.96;99282.43;1699045;82;22078;-59
2021/05/05 01:24:37;;;;;;;7.35;3.58;;;;;;;6.10;55.06;99284.20;1674667;83;21465;-58
2021/05/05 01:27:07;;;;;;;8.75;3.70;;;;;;;6.09;55.17;99283.34;1676778;83;21489;-58
2021/05/05 01:29:36;;;;;;;4.70;3.70;;;;;;;6.08;55.09;99280.78;1698812;82;21573;-58
2021/05/05 01:32:05;;;;;;;6.08;3.60;;;;;;;6.11;55.07;99278.94;1699248;82;21600;-59
2021/05/05 01:34:34;;;;;;;5.78;3.30;;;;;;;6.07;55.09;99279.09;1696622;82;21942;-59
2021/05/05 01:37:02;;;;;;;6.70;3.37;;;;;;;6.10;55.05;99274.60;1695688;83;21737;-58
2021/05/05 01:39:31;;;;;;;5.62;3.58;;;;;;;6.09;55.13;99273.37;1671207;83;21185;-58
2021/05/05 01:41:59;;;;;;;6.42;3.65;;;;;;;6.10;55.19;99269.84;1695123;82;21559;-59
2021/05/05 01:44:34;;;;;;;6.12;3.98;;;;;;;6.14;55.24;99276.67;1719715;81;21655;-58
2021/05/05 01:47:24;;;;;;;4.95;3.80;;;;;;;6.18;55.15;99275.24;1671063;83;21967;-58
2021/05/05 01:49:52;;;;;;;5.10;3.77;;;;;;;6.18;55.15;99272.62;1737907;80;21545;-59
2021/05/05 01:52:21;;;;;;;;;;;;;;;6.18;55.17;99270.48;1722021;82;21586;-58
2021/05/05 01:54:50;;;;;;;5.22;4.10;;;;;;;6.20;55.15;99276.05;1730712;81;20486;-58
2021/05/05 01:57:36;;;;;;;6.55;3.77;;;;;;;6.13;55.46;99272.37;1748468;79;21188;-58
2021/05/05 02:00:08;;;;;;;;;;;;;;;6.09;55.90;99272.91;1711992;82;21982;-59
2021/05/05 02:02:37;;;;;;;7.12;3.30;;;;;;;6.07;55.71;99272.11;1684530;82;20559;-57
2021/05/05 02:05:08;;;;;;;5.45;3.10;;;;;;;6.05;55.66;99276.52;1711489;81;21717;-57
2021/05/05 02:07:37;;;;;;;9.08;3.40;;;;;;;6.03;55.81;99273.10;1771594;79;21602;-57
2021/05/05 02:10:10;;;;;;;5.80;3.17;;;;;;;6.05;55.86;99268.69;1741887;80;21706;-57
2021/05/05 02:12:40;;;;;;;4.25;3.47;;;;;;;6.05;55.90;99272.61;1734846;81;21933;-57
2021/05/05 02:15:11;;;;;;;6.05;3.40;;;;;;;6.03;56.14;99270.49;1747390;80;21190;-57
2021/05/05 02:17:39;;;;;;;11.80;3.58;;;;;;;6.01;56.31;99266.62;1755523;80;21553;-57
2021/05/05 02:20:09;;;;;;;5.50;3.42;;;;;;;5.99;56.36;99263.20;1730216;80;21663;-56
2021/05/05 02:22:41;;;;;;;5.85;3.42;;;;;;;6.04;56.40;99262.59;1741914;81;21689;-57
2021/05/05 02:25:11;;;;;;;4.92;3.70;;;;;;;5.99;56.60;99263.63;1758648;80;22064;-57
2021/05/05 02:28:00;;;;;;;5.40;3.27;;;;;;;5.99;56.47;99261.02;1740253;80;21579;-57
2021/05/05 02:30:33;;;;;;;3.37;3.08;;;;;;;5.98;56.65;99253.65;1665184;83;21648;-57
2021/05/05 02:33:03;;;;;;;7.60;3.87;;;;;;;6.03;56.56;99251.77;1670991;83;21622;-57
2021/05/05 02:35:32;;;;;;;7.12;3.55;;;;;;;5.97;56.69;99243.25;1673375;83;21496;-57
2021/05/05 02:38:03;;;;;;;6.47;3.22;;;;;;;5.96;57.06;99245.02;1674451;83;22012;-57
2021/05/05 02:40:31;;;;;;;4.97;3.30;;;;;;;5.98;56.99;99240.60;1673077;83;21614;-57
2021/05/05 02:42:59;;;;;;;4.60;3.17;;;;;;;5.99;57.10;99245.36;1675402;83;21584;-58
2021/05/05 02:45:27;;;;;;;5.00;3.37;;;;;;;6.01;57.10;99239.22;1674946;83;21499;-58
2021/05/05 02:47:55;;;;;;;4.15;3.58;;;;;;;6.02;57.19;99240.06;1673043;83;21701;-58
2021/05/05 02:50:24;;;;;;;7.65;3.70;;;;;;;6.06;57.22;99239.52;1675468;83;21938;-57
2021/05/05 02:52:53;;;;;;;5.03;3.27;;;;;;;6.09;57.22;99238.13;1675142;83;21586;-58
2021/05/05 02:55:21;;;;;;;7.62;3.75;;;;;;;6.13;57.36;99235.83;1668923;83;21673;-58
2021/05/05 02:57:50;;;;;;;7.08;3.42;;;;;;;6.16;57.26;99234.41;1671697;84;21555;-57
2021/05/05 03:00:26;;;;;;;4.70;3.25;;;;;;;6.19;57.41;99233.02;1673882;83;21479;-57
2021/05/05 03:02:54;;;;;;;7.08;3.67;;;;;;;6.19;57.39;99229.09;1672989;83;22050;-57
2021/05/05 03:05:22;;;;;;;6.08;3.20;;;;;;;6.24;57.41;99226.74;1673401;83;27159;-57
2021/05/05 03:07:51;;;;;;;6.08;3.22;;;;;;;6.26;57.46;99224.55;1671651;83;21125;-57
2021/05/05 03:10:19;;;;;;;6.12;3.47;;;;;;;6.30;57.59;99224.84;1674164;83;21149;-58
2021/05/05 03:12:49;;;;;;;5.33;3.60;;;;;;;6.39;57.57;99228.47;1674772;83;21590;-57
2021/05/05 03:15:18;;;;;;;3.52;3.05;;;;;;;6.43;57.55;99220.48;1669531;83;22097;-57
2021/05/05 03:17:47;;;;;;;7.40;3.58;;;;;;;6.48;57.71;99222.08;1674333;83;21145;-57
2021/05/05 03:20:17;;;;;;;4.30;3.90;;;;;;;6.47;57.63;99207.33;1667518;83;21622;-57
2021/05/05 03:22:45;;;;;;;10.23;3.33;;;;;;;6.59;57.67;99213.00;1674168;83;21634;-57
2021/05/05 03:25:13;;;;;;;4.90;3.83;;;;;;;6.65;57.75;99217.59;1674245;83;21199;-57
2021/05/05 03:27:40;;;;;;;;;;;;;;;6.79;57.55;99218.00;1678070;83;21981;-57
2021/05/05 03:30:09;;;;;;;5.22;3.15;;;;;;;6.83;57.68;99220.91;1674039;83;25725;-57
2021/05/05 03:32:37;;;;;;;4.00;3.12;;;;;;;6.88;57.53;99212.46;1671604;83;21565;-57
2021/05/05 03:35:07;;;;;;;4.65;3.02;;;;;;;6.99;57.39;99216.86;1674241;83;21178;-56
2021/05/05 03:37:36;;;;;;;7.42;3.60;;;;;;;7.08;57.38;99211.74;1655303;85;21135;-57
2021/05/05 03:40:05;;;;;;;4.12;3.42;;;;;;;7.18;57.40;99207.06;1655920;85;22057;-57
2021/05/05 03:42:33;;;;;;;4.85;3.65;;;;;;;7.29;57.27;99216.69;1649461;85;21608;-57
2021/05/05 03:45:03;;;;;;;3.75;3.37;;;;;;;7.41;57.15;99208.37;1655197;85;21704;-57
2021/05/05 03:47:51;;;;;;;5.87;3.90;;;;;;;7.51;56.86;99210.19;1655314;85;21645;-57
2021/05/05 03:50:21;;;;;;;5.17;3.42;;;;;;;7.59;56.82;99203.36;1643114;85;21512;-59
2021/05/05 03:52:49;;;;;;;5.90;3.70;;;;;;;7.71;56.59;99204.22;1679072;83;21973;-59
2021/05/05 03:55:17;;;;;;;7.55;3.80;;;;;;;7.82;56.43;99212.98;1647418;85;21650;-56
2021/05/05 03:57:45;;;;;;;;;;;;;;;7.89;56.42;99209.22;1685365;83;21157;-57
2021/05/05 04:00:15;;;;;;;4.87;3.70;;;;;;;7.99;56.63;99201.39;1674970;83;20498;-58
2021/05/05 04:02:43;;;;;;;3.87;3.42;;;;;;;8.08;56.29;99204.55;1680491;83;21518;-56
2021/05/05 04:05:12;;;;;;;;;;;;;;;8.18;55.94;99204.12;1677156;83;21929;-57
2021/05/05 04:07:40;;;;;;;6.53;3.75;;;;;;;8.28;55.93;99208.53;1679994;83;20578;-57
2021/05/05 04:10:09;;;;;;;;;;;;;;;8.37;55.85;99198.16;1686800;82;21164;-56
2021/05/05 04:12:37;;;;;;;3.50;3.20;;;;;;;8.48;55.69;99201.69;1641685;85;20575;-57
2021/05/05 04:15:23;;;;;;;4.85;3.95;;;;;;;8.60;55.17;99204.25;1673553;83;21508;-56
2021/05/05 04:18:09;;;;;;;7.72;3.62;;;;;;;8.73;54.94;99195.79;1674775;83;22142;-57
2021/05/05 04:21:02;;;;;;;4.00;3.27;;;;;;;8.90;54.58;99193.77;1645475;85;21530;-56
2021/05/05 04:23:49;;;;;;;6.72;3.15;;;;;;;9.00;54.53;99195.98;1687751;83;21288;-55
2021/05/05 04:26:17;;;;;;;3.47;3.17;;;;;;;9.14;54.29;99193.63;1643577;85;21646;-57
2021/05/05 04:28:45;;;;;;;5.00;3.08;;;;;;;9.30;53.95;99192.00;1678252;84;21561;-55
2021/05/05 04:31:13;;;;;;;3.62;3.12;;;;;;;9.44;53.70;99182.69;1673668;83;22049;-55
2021/05/05 04:33:45;;;;;;;3.98;3.35;;;;;;;9.57;53.70;99186.89;1672478;83;21703;-56
2021/05/05 04:36:14;;;;;;;3.72;3.27;;;;;;;9.67;53.54;99183.78;1674091;83;21697;-55
2021/05/05 04:38:42;;;;;;;4.15;2.70;;;;;;;9.81;53.33;99182.28;1670958;83;21249;-55
2021/05/05 04:41:11;;;;;;;3.25;2.87;;;;;;;9.96;52.82;99175.45;1679608;83;21583;-55
2021/05/05 04:43:41;;;;;;;4.08;2.70;;;;;;;10.09;52.79;99176.09;1678046;83;21892;-56
2021/05/05 04:46:09;;;;;;;7.17;2.72;;;;;;;10.20;52.81;99176.90;1681578;83;21673;-57
2021/05/05 04:48:37;;;;;;;;;;;;;;;10.33;52.38;99168.83;1678800;83;21602;-57
2021/05/05 04:51:07;;;;;;;4.97;3.12;;;;;;;10.46;51.81;99175.65;1675805;83;20492;-58
2021/05/05 04:53:35;;;;;;;2.65;2.20;;;;;;;10.56;52.19;99160.27;1673997;83;21504;-57
2021/05/05 04:56:04;;;;;;;3.60;2.65;;;;;;;10.72;51.89;99164.30;1622580;86;21809;-60
2021/05/05 04:58:32;;;;;;;4.50;2.72;;;;;;;10.82;51.46;99160.25;1641551;85;21519;-59
2021/05/05 05:01:00;;;;;;;5.37;2.20;;;;;;;10.91;51.09;99167.67;1647844;84;21171;-61
2021/05/05 05:03:27;;;;;;;3.60;2.12;;;;;;;10.98;51.11;99164.27;1643309;85;21558;-60
2021/05/05 05:05:55;;;;;;;3.33;2.47;;;;;;;11.07;51.42;99166.87;1647383;86;21595;-60
2021/05/05 05:08:23;;;;;;;4.28;2.90;;;;;;;11.20;50.74;99157.88;1640609;85;25969;-56
2021/05/05 17:44:56;;;;;;;4.47;2.02;;;;;;;16.33;47.29;98674.80;1783025;78;23544;-60
2021/05/05 18:14:30;;;;;;;;;;;;;;;16.15;47.75;98670.98;1741926;80;21595;-56
2021/05/05 18:16:54;;;;;;;5.58;1.70;;;;;;;16.19;47.20;98664.46;1743859;80;22038;-56
2021/05/05 18:19:23;;;;;;;6.05;1.67;;;;;;;16.15;47.68;98667.01;1741481;80;21886;-56
2021/05/05 18:30:02;;;;;;;5.00;1.90;;;;;;;16.29;46.56;98658.78;1721389;80;21578;-56
2021/05/05 18:32:30;;;;;;;7.03;1.60;;;;;;;16.29;46.68;98669.39;1693546;82;21637;-56
2021/05/05 18:35:02;;;;;;;5.85;1.50;;;;;;;16.27;46.54;98666.48;1720226;80;21868;-56
2021/05/05 18:37:34;;;;;;;5.90;1.90;;;;;;;16.26;46.56;98666.14;1727713;81;21579;-56
2021/05/05 18:40:06;;;;;;;10.25;1.60;;;;;;;16.25;46.50;98662.63;1730811;80;21637;-55
2021/05/05 19:21:35;;;;;;;7.95;1.60;;;;;;;15.49;47.84;98657.19;1727873;80;27098;-57
2021/05/05 19:46:46;;;;;;;9.80;1.80;;;;;;;15.39;47.61;98658.89;1697539;82;21574;-56
2021/05/05 20:03:33;;;;;;;8.18;1.55;;;;;;;15.25;47.95;98661.77;1696717;81;21633;-55
2021/05/05 20:06:55;;;;;;;5.70;1.55;;;;;;;15.21;48.16;98666.94;1691580;82;21936;-56
2021/05/05 21:10:42;;;;;;;3.58;1.60;;;;;;;14.48;50.00;98665.74;1706614;82;21137;-57
2021/05/05 22:48:07;;;;;;;5.08;1.77;;;;;;;13.33;53.88;98643.67;1734754;80;21568;-61
2021/05/05 22:53:38;;;;;;;5.05;1.70;;;;;;;13.23;54.98;98640.80;1720076;80;21635;-59
2021/05/05 23:15:25;;;;;;;4.20;1.47;;;;;;;12.96;56.10;98620.66;1781507;79;21209;-60
2021/05/05 23:40:00;;;;;;;3.40;1.50;;;;;;;12.83;56.34;98615.38;1789760;78;21567;-61
